Time;durP1;ratioP1;P1;durP2;ratioP2;P2;SDS_P1;SDS_P2;PMS_P1;PMS_P2;Temp;Humidity;BMP_temperature;BMP_pressure;BME280_temperature;BME280_humidity;BME280_pressure;Samples;Min_cycle;Max_cycle;Signal;HPM_P1;HPM_P2
2023/10/12 00:02:04;;;;;;;8.43;4.10;;;19.10;99.90;;;;;;5033121;28;20180;-73
2023/10/12 00:04:43;;;;;;;6.70;3.40;;;19.30;99.90;;;;;;5032887;28;20513;-73
2023/10/12 00:07:56;;;;;;;5.97;3.93;;;19.30;99.90;;;;;;5032893;28;20921;-73
2023/10/12 00:12:35;;;;;;;5.70;3.30;;;19.40;99.90;;;;;;5032873;28;20895;-73
2023/10/12 00:15:23;;;;;;;13.70;5.00;;;19.40;99.90;;;;;;5032902;28;20424;-73
2023/10/12 00:17:53;;;;;;;6.83;3.40;;;19.50;99.90;;;;;;5032480;28;20810;-72
2023/10/12 00:23:10;;;;;;;6.13;3.80;;;19.40;99.90;;;;;;5012874;28;20423;-73
2023/10/12 00:25:45;;;;;;;6.70;3.80;;;19.40;99.90;;;;;;5013153;28;20411;-73
2023/10/12 00:28:13;;;;;;;9.93;4.10;;;19.60;99.90;;;;;;5012902;28;20421;-72
2023/10/12 00:30:41;;;;;;;7.30;3.60;;;19.50;99.90;;;;;;5013035;28;20536;-72
2023/10/12 00:33:08;;;;;;;7.20;3.20;;;19.60;99.90;;;;;;5012716;28;20766;-73
2023/10/12 00:35:37;;;;;;;7.40;3.93;;;19.70;99.90;;;;;;5013410;28;20446;-72
2023/10/12 00:38:15;;;;;;;9.00;3.43;;;19.70;99.90;;;;;;5012405;28;20459;-72
2023/10/12 00:40:48;;;;;;;8.50;3.40;;;19.70;99.90;;;;;;5006017;28;20423;-73
2023/10/12 00:43:15;;;;;;;7.90;4.10;;;19.70;99.90;;;;;;5012265;28;20418;-72
2023/10/12 00:45:41;;;;;;;5.27;3.47;;;19.70;99.90;;;;;;5013118;28;20509;-74
2023/10/12 00:48:07;;;;;;;12.83;3.90;;;19.80;99.90;;;;;;5013415;28;20536;-74
2023/10/12 00:50:36;;;;;;;5.90;3.00;;;19.80;99.90;;;;;;5014636;28;20651;-72
2023/10/12 00:53:15;;;;;;;5.50;3.10;;;19.80;99.90;;;;;;5012632;28;20413;-72
2023/10/12 00:55:41;;;;;;;5.17;3.63;;;19.80;99.90;;;;;;5005302;28;20428;-73
2023/10/12 00:58:10;;;;;;;5.60;3.77;;;19.90;99.90;;;;;;5012788;28;20897;-74
2023/10/12 01:00:50;;;;;;;5.20;3.60;;;19.80;99.90;;;;;;5012802;28;21002;-73
2023/10/12 01:03:33;;;;;;;8.67;3.47;;;19.70;99.90;;;;;;5012278;28;20787;-73
2023/10/12 01:08:36;;;;;;;9.90;3.43;;;19.60;99.90;;;;;;5012080;28;20479;-73
2023/10/12 01:11:06;;;;;;;8.17;4.47;;;19.60;99.90;;;;;;5011908;28;20438;-72
2023/10/12 01:13:35;;;;;;;7.17;3.50;;;19.50;99.90;;;;;;5011625;28;20426;-72
2023/10/12 01:16:20;;;;;;;8.43;4.80;;;19.60;99.90;;;;;;5011900;28;20432;-72
2023/10/12 01:18:45;;;;;;;9.60;6.70;;;19.60;99.90;;;;;;5005070;28;20465;-72
2023/10/12 01:21:11;;;;;;;8.90;4.57;;;19.60;99.90;;;;;;5028444;28;20419;-72
2023/10/12 01:23:41;;;;;;;16.83;4.30;;;19.80;99.90;;;;;;5031471;28;20172;-72
2023/10/12 01:26:10;;;;;;;6.10;3.83;;;19.80;99.90;;;;;;5031322;28;20693;-73
2023/10/12 01:28:37;;;;;;;4.83;3.20;;;19.70;99.90;;;;;;5031336;28;20740;-73
2023/10/12 01:31:04;;;;;;;5.73;3.27;;;19.60;99.90;;;;;;5031498;28;20436;-72
2023/10/12 01:33:30;;;;;;;7.10;3.53;;;19.50;99.90;;;;;;5032096;28;20431;-72
2023/10/12 01:35:56;;;;;;;5.07;2.90;;;19.50;99.90;;;;;;5031799;28;20429;-72
2023/10/12 01:38:22;;;;;;;3.60;3.20;;;19.50;99.90;;;;;;5032013;28;20196;-73
2023/10/12 01:40:54;;;;;;;8.30;3.70;;;19.40;99.90;;;;;;5044192;28;20250;-72
2023/10/12 01:43:20;;;;;;;6.33;4.07;;;19.40;99.90;;;;;;5046156;28;20178;-71
2023/10/12 01:45:59;;;;;;;6.13;4.07;;;19.40;99.90;;;;;;5046709;28;20451;-71
2023/10/12 01:48:29;;;;;;;8.20;4.53;;;19.40;99.90;;;;;;5031018;28;20593;-72
2023/10/12 01:50:56;;;;;;;10.90;4.00;;;19.40;99.90;;;;;;5013233;28;20497;-72
2023/10/12 01:55:51;;;;;;;9.17;4.30;;;19.30;99.90;;;;;;5030790;28;20579;-72
2023/10/12 01:58:18;;;;;;;6.70;3.63;;;19.20;99.90;;;;;;5030553;28;20240;-72
2023/10/12 02:00:51;;;;;;;11.30;3.87;;;19.20;99.90;;;;;;5030630;28;20479;-73
2023/10/12 02:03:31;;;;;;;8.90;3.67;;;19.10;99.90;;;;;;5030521;28;20413;-72
2023/10/12 02:06:06;;;;;;;4.50;3.53;;;19.10;99.90;;;;;;5030917;28;20413;-72
2023/10/12 02:08:33;;;;;;;7.80;4.17;;;19.10;99.90;;;;;;5030150;28;20416;-74
2023/10/12 02:11:26;;;;;;;12.00;3.97;;;19.20;99.90;;;;;;5030511;28;20447;-72
2023/10/12 02:13:55;;;;;;;8.57;4.40;;;19.10;99.90;;;;;;5030329;28;20427;-72
2023/10/12 02:16:30;;;;;;;7.60;4.30;;;19.10;99.90;;;;;;5030511;28;20513;-73
2023/10/12 02:18:57;;;;;;;6.73;3.60;;;19.10;99.90;;;;;;5030598;28;20481;-73
2023/10/12 02:21:25;;;;;;;7.97;3.63;;;19.00;99.90;;;;;;5030719;28;20434;-72
2023/10/12 02:24:10;;;;;;;6.67;4.80;;;19.00;99.90;;;;;;5030365;28;20766;-72
2023/10/12 02:26:38;;;;;;;6.93;3.57;;;18.90;99.90;;;;;;5030330;28;20414;-72
2023/10/12 02:31:45;;;;;;;7.23;3.50;;;18.80;99.90;;;;;;5030747;28;20643;-73
2023/10/12 02:34:16;;;;;;;8.57;3.83;;;18.80;99.90;;;;;;5030171;28;20778;-73
2023/10/12 02:39:42;;;;;;;3.83;2.83;;;18.80;99.90;;;;;;5029943;28;20558;-73
2023/10/12 02:47:42;;;;;;;7.43;4.17;;;18.80;99.90;;;;;;5030595;28;20411;-73
2023/10/12 02:52:36;;;;;;;7.40;3.77;;;18.60;99.90;;;;;;5030024;28;20552;-74
2023/10/12 02:55:24;;;;;;;11.37;4.37;;;18.60;99.90;;;;;;5030137;28;20416;-73
2023/10/12 02:57:56;;;;;;;5.83;3.80;;;18.60;99.90;;;;;;5030105;28;20427;-72
2023/10/12 03:03:05;;;;;;;9.63;4.60;;;18.40;99.90;;;;;;5030245;28;20479;-73
2023/10/12 03:05:33;;;;;;;11.37;4.37;;;18.40;99.90;;;;;;5030105;28;20501;-73
2023/10/12 03:08:06;;;;;;;6.60;4.20;;;18.30;99.90;;;;;;5029993;28;20422;-72
2023/10/12 03:10:32;;;;;;;11.83;4.67;;;18.40;99.90;;;;;;5029804;28;20538;-72
2023/10/12 03:13:04;;;;;;;11.00;4.30;;;18.30;99.90;;;;;;5029849;28;20465;-73
2023/10/12 03:15:41;;;;;;;8.03;4.23;;;18.20;99.90;;;;;;5029877;28;20735;-73
2023/10/12 03:18:11;;;;;;;6.97;3.93;;;18.10;99.90;;;;;;5029968;28;20461;-73
2023/10/12 03:20:38;;;;;;;8.23;4.50;;;18.10;99.90;;;;;;5024044;28;21004;-72
2023/10/12 03:23:13;;;;;;;10.13;5.57;;;18.00;99.90;;;;;;5023303;28;20410;-73
2023/10/12 03:25:51;;;;;;;6.57;4.00;;;17.90;99.90;;;;;;5033825;28;20452;-73
2023/10/12 03:28:29;;;;;;;10.57;4.53;;;17.80;99.90;;;;;;5033586;28;21040;-72
2023/10/12 03:33:54;;;;;;;5.80;4.40;;;17.70;99.90;;;;;;5034036;28;20468;-73
2023/10/12 03:36:25;;;;;;;6.77;4.50;;;17.60;99.90;;;;;;5055815;22;20414;-70
2023/10/12 03:39:07;;;;;;;13.27;6.37;;;17.50;99.90;;;;;;5034774;28;20475;-71
2023/10/12 03:44:36;;;;;;;10.67;4.80;;;17.40;99.90;;;;;;5030872;28;20416;-71
2023/10/12 03:47:14;;;;;;;8.70;4.17;;;17.30;99.90;;;;;;5054684;28;20514;-71
2023/10/12 03:52:28;;;;;;;5.07;3.57;;;17.10;99.90;;;;;;5054881;28;20421;-71
2023/10/12 03:57:45;;;;;;;4.70;3.70;;;17.00;99.90;;;;;;5054675;28;20523;-69
2023/10/12 04:08:00;;;;;;;4.70;4.13;;;16.50;99.90;;;;;;5035300;28;20804;-70
2023/10/12 04:16:27;;;;;;;8.20;5.00;;;16.40;99.90;;;;;;5034026;28;20790;-70
2023/10/12 04:21:22;;;;;;;8.00;5.23;;;16.30;99.90;;;;;;5034132;28;20409;-70
2023/10/12 04:26:37;;;;;;;4.70;3.97;;;16.10;99.90;;;;;;5033592;28;20473;-70
2023/10/12 04:29:16;;;;;;;25.83;7.37;;;16.00;99.90;;;;;;5033974;28;20437;-69
2023/10/12 04:34:10;;;;;;;5.80;3.40;;;15.90;99.90;;;;;;5033759;28;20934;-69
2023/10/12 04:39:27;;;;;;;4.67;3.30;;;15.80;99.90;;;;;;5033738;28;20462;-70
2023/10/12 04:42:20;;;;;;;4.43;3.80;;;15.70;99.90;;;;;;5033476;28;20837;-70
2023/10/12 04:45:23;;;;;;;4.43;3.10;;;15.60;99.90;;;;;;5033259;28;20469;-70
2023/10/12 04:47:55;;;;;;;6.00;3.33;;;15.40;99.90;;;;;;5033251;28;20511;-69
2023/10/12 04:50:27;;;;;;;4.37;2.83;;;15.40;99.90;;;;;;5033393;28;20437;-70
2023/10/12 04:53:09;;;;;;;3.10;2.90;;;15.30;99.90;;;;;;5033627;28;20412;-69
2023/10/12 04:55:35;;;;;;;7.73;3.00;;;15.40;99.90;;;;;;5033356;28;20426;-70
2023/10/12 04:58:11;;;;;;;5.40;3.83;;;15.30;99.90;;;;;;5033129;28;20684;-68
2023/10/12 05:00:54;;;;;;;6.53;2.70;;;15.20;99.90;;;;;;5032937;28;20422;-70
2023/10/12 05:03:25;;;;;;;3.70;3.23;;;15.20;99.90;;;;;;5033247;28;20430;-69
2023/10/12 05:05:57;;;;;;;6.07;3.40;;;15.30;99.90;;;;;;5031109;28;20523;-70
2023/10/12 05:08:23;;;;;;;5.10;3.60;;;15.30;99.90;;;;;;5032673;28;20450;-68
2023/10/12 05:10:48;;;;;;;5.67;3.27;;;15.20;99.90;;;;;;5032835;28;20415;-69
2023/10/12 05:13:21;;;;;;;5.00;3.70;;;15.20;99.90;;;;;;5032513;28;20172;-68
2023/10/12 05:16:06;;;;;;;5.03;3.13;;;15.20;99.90;;;;;;5032345;28;20184;-68
2023/10/12 05:18:33;;;;;;;5.23;3.37;;;15.20;99.90;;;;;;5032360;28;20624;-69
2023/10/12 05:21:00;;;;;;;5.30;3.40;;;15.20;99.90;;;;;;5032462;28;20411;-69
2023/10/12 05:23:26;;;;;;;4.50;3.00;;;15.10;99.90;;;;;;5032197;28;20412;-69
2023/10/12 05:28:18;;;;;;;3.23;2.87;;;15.00;99.90;;;;;;5032484;28;20827;-69
2023/10/12 05:30:55;;;;;;;3.63;3.00;;;15.10;99.90;;;;;;5032067;28;20415;-70
2023/10/12 05:33:38;;;;;;;3.20;2.80;;;15.10;99.90;;;;;;5031969;28;20427;-70
2023/10/12 05:36:10;;;;;;;3.73;2.47;;;15.10;99.90;;;;;;5032160;28;20963;-71
2023/10/12 05:38:51;;;;;;;4.23;3.53;;;15.10;99.90;;;;;;5032086;28;20462;-69
2023/10/12 05:41:29;;;;;;;7.43;3.97;;;15.10;99.90;;;;;;5032217;28;20414;-70
2023/10/12 05:43:56;;;;;;;5.20;3.30;;;15.00;99.90;;;;;;5032235;28;20402;-70
2023/10/12 05:46:22;;;;;;;4.83;3.27;;;15.00;99.90;;;;;;5035242;28;20420;-70
2023/10/12 05:48:52;;;;;;;11.83;3.57;;;15.00;99.90;;;;;;5037894;28;20403;-71
2023/10/12 05:51:21;;;;;;;4.73;4.00;;;15.00;99.90;;;;;;5032386;28;20174;-71
2023/10/12 05:54:02;;;;;;;4.30;3.67;;;15.00;99.90;;;;;;5014230;28;20464;-71
2023/10/12 05:56:30;;;;;;;7.70;3.17;;;15.00;99.90;;;;;;5031665;28;20479;-70
2023/10/12 05:58:56;;;;;;;8.40;3.40;;;15.00;99.90;;;;;;5031596;28;20944;-70
2023/10/12 06:01:32;;;;;;;6.50;3.97;;;15.00;99.90;;;;;;5031400;28;20456;-70
2023/10/12 06:04:05;;;;;;;10.83;4.80;;;15.00;99.90;;;;;;5031892;28;20576;-70
2023/10/12 06:06:35;;;;;;;5.03;3.70;;;15.00;99.90;;;;;;5031583;28;20588;-70
2023/10/12 06:09:05;;;;;;;5.93;4.20;;;15.00;99.90;;;;;;5031731;28;20894;-71
2023/10/12 06:11:31;;;;;;;6.90;3.63;;;15.00;99.90;;;;;;5031129;28;20415;-70
2023/10/12 06:13:59;;;;;;;9.10;5.13;;;15.00;99.90;;;;;;5031197;28;20569;-70
2023/10/12 06:16:26;;;;;;;8.27;4.90;;;15.00;99.90;;;;;;5031496;28;20176;-69
2023/10/12 06:18:54;;;;;;;9.20;5.43;;;15.00;99.90;;;;;;5031070;28;20455;-69
2023/10/12 06:21:19;;;;;;;8.03;4.70;;;15.00;99.90;;;;;;5031060;28;20792;-69
2023/10/12 06:23:48;;;;;;;9.80;5.07;;;15.00;99.90;;;;;;5030874;28;20498;-71
2023/10/12 06:26:28;;;;;;;8.23;5.23;;;15.00;99.90;;;;;;5031364;28;20255;-70
2023/10/12 06:28:57;;;;;;;6.30;4.93;;;15.00;99.90;;;;;;5031573;28;20472;-71
2023/10/12 06:31:25;;;;;;;8.27;4.40;;;15.10;99.90;;;;;;5031453;28;20411;-70
2023/10/12 06:33:52;;;;;;;8.10;5.67;;;15.10;99.90;;;;;;5031404;28;20861;-70
2023/10/12 06:36:22;;;;;;;8.50;4.83;;;15.10;99.90;;;;;;5031317;28;20429;-70
2023/10/12 06:43:58;;;;;;;5.03;4.37;;;15.10;99.90;;;;;;5031763;28;20450;-69
2023/10/12 06:46:28;;;;;;;9.43;4.90;;;15.10;99.90;;;;;;5031189;28;20168;-69
2023/10/12 06:49:01;;;;;;;7.90;5.37;;;15.20;99.90;;;;;;5030958;28;20411;-69
2023/10/12 06:51:28;;;;;;;11.83;6.20;;;15.20;99.90;;;;;;5031414;28;20765;-69
2023/10/12 06:54:06;;;;;;;7.77;4.80;;;15.20;99.90;;;;;;5031515;28;20906;-69
2023/10/12 06:56:38;;;;;;;12.67;5.50;;;15.20;99.90;;;;;;5035620;28;20496;-68
2023/10/12 06:59:14;;;;;;;9.03;5.50;;;15.10;99.90;;;;;;5040918;28;20449;-70
2023/10/12 07:04:20;;;;;;;7.07;5.47;;;15.20;99.90;;;;;;5055506;28;20428;-69
2023/10/12 07:06:56;;;;;;;12.73;6.50;;;15.30;99.90;;;;;;5055298;28;20444;-69
2023/10/12 07:09:48;;;;;;;11.27;6.50;;;15.20;99.90;;;;;;5055214;28;20868;-70
2023/10/12 07:12:17;;;;;;;8.63;7.50;;;15.30;99.90;;;;;;5055272;28;20446;-69
2023/10/12 07:14:47;;;;;;;9.67;7.30;;;15.30;99.90;;;;;;5040975;28;20481;-70
2023/10/12 07:17:13;;;;;;;10.50;9.40;;;15.30;99.90;;;;;;5035815;28;20430;-70
2023/10/12 07:19:46;;;;;;;12.30;8.10;;;15.20;99.90;;;;;;5035377;28;20459;-70
2023/10/12 07:22:15;;;;;;;10.80;7.57;;;15.30;99.90;;;;;;5035155;28;20912;-70
2023/10/12 07:24:42;;;;;;;9.73;8.70;;;15.20;99.90;;;;;;5035514;28;20423;-70
2023/10/12 07:27:18;;;;;;;9.10;6.73;;;15.30;99.90;;;;;;5037899;28;20446;-69
2023/10/12 07:29:44;;;;;;;11.07;6.80;;;15.20;99.90;;;;;;5035724;28;20422;-70
2023/10/12 07:34:54;;;;;;;9.10;6.10;;;15.20;99.90;;;;;;5035305;28;20177;-69
2023/10/12 07:37:20;;;;;;;9.23;6.37;;;15.10;99.90;;;;;;5034693;28;20517;-68
2023/10/12 07:39:46;;;;;;;12.33;6.90;;;15.20;99.90;;;;;;5034557;28;20546;-68
2023/10/12 07:42:24;;;;;;;9.00;6.50;;;15.10;99.90;;;;;;5034844;28;20901;-70
2023/10/12 07:44:59;;;;;;;9.90;7.20;;;15.20;99.90;;;;;;5034499;28;20630;-70
2023/10/12 07:47:49;;;;;;;9.10;5.80;;;15.10;99.90;;;;;;5034203;28;20423;-69
2023/10/12 07:50:12;;;;;;;6.90;5.20;;;15.10;99.90;;;;;;5034019;28;20400;-69
2023/10/12 07:52:47;;;;;;;3.30;2.23;;;15.10;99.90;;;;;;5034321;28;20415;-70
2023/10/12 07:55:15;;;;;;;2.67;1.60;;;14.90;99.90;;;;;;5034537;28;20919;-70
2023/10/12 07:57:41;;;;;;;2.83;1.70;;;14.60;99.90;;;;;;5033912;28;20484;-70
2023/10/12 08:10:48;;;;;;;2.00;1.60;;;13.60;99.90;;;;;;5034238;28;20463;-68
2023/10/12 08:15:55;;;;;;;4.73;2.13;;;13.50;99.90;;;;;;5051668;28;20420;-70
2023/10/12 08:21:32;;;;;;;4.00;1.40;;;13.40;99.90;;;;;;5053955;28;20409;-71
2023/10/12 08:26:50;;;;;;;4.00;1.60;;;13.20;99.90;;;;;;5053297;28;20525;-69
2023/10/12 08:30:11;;;;;;;3.97;2.20;;;13.30;99.90;;;;;;5053606;28;21014;-70
2023/10/12 08:39:50;;;;;;;12.33;2.33;;;13.30;99.90;;;;;;5053582;28;20445;-70
2023/10/12 08:44:49;;;;;;;5.10;2.10;;;13.30;99.90;;;;;;5053235;28;20406;-75
2023/10/12 08:47:25;;;;;;;7.20;1.57;;;13.30;99.90;;;;;;5053127;28;20433;-70
2023/10/12 08:50:02;;;;;;;19.70;2.70;;;13.30;99.90;;;;;;5051886;28;20413;-71
2023/10/12 08:52:28;;;;;;;6.47;1.80;;;13.30;99.90;;;;;;5033599;28;20442;-71
2023/10/12 08:55:03;;;;;;;6.60;2.40;;;13.30;99.90;;;;;;5033185;28;20449;-70
2023/10/12 08:57:37;;;;;;;5.07;1.60;;;13.30;99.90;;;;;;5033298;28;20433;-70
2023/10/12 09:00:23;;;;;;;9.63;2.23;;;13.30;99.90;;;;;;5033192;28;20445;-70
2023/10/12 09:03:00;;;;;;;4.13;1.83;;;13.40;99.90;;;;;;5032851;28;20410;-70
2023/10/12 09:05:31;;;;;;;9.70;2.30;;;13.50;99.90;;;;;;5033296;28;20421;-72
2023/10/12 09:08:08;;;;;;;7.50;2.57;;;13.30;99.90;;;;;;5036195;28;20428;-70
2023/10/12 09:13:36;;;;;;;7.40;2.00;;;13.50;99.90;;;;;;5032944;28;20409;-70
2023/10/12 09:16:10;;;;;;;5.30;2.07;;;13.60;99.90;;;;;;5025021;28;20408;-70
2023/10/12 09:18:45;;;;;;;6.67;1.67;;;13.60;99.90;;;;;;5031892;28;20458;-69
2023/10/12 09:21:39;;;;;;;6.53;1.90;;;13.70;99.90;;;;;;5032710;28;20505;-70
2023/10/12 09:24:06;;;;;;;4.50;2.40;;;13.80;99.90;;;;;;5032763;28;20537;-69
2023/10/12 09:26:46;;;;;;;6.07;2.23;;;13.80;99.90;;;;;;5032730;28;21034;-71
2023/10/12 09:29:23;;;;;;;3.47;2.30;;;13.90;99.90;;;;;;5032584;28;20410;-70
2023/10/12 09:35:02;;;;;;;7.90;2.50;;;14.30;99.90;;;;;;5033037;28;20417;-69
2023/10/12 09:37:33;;;;;;;8.20;2.73;;;14.20;99.90;;;;;;5032511;28;20529;-69
2023/10/12 09:39:59;;;;;;;10.33;2.87;;;14.20;99.90;;;;;;5032114;28;20457;-69
2023/10/12 09:42:30;;;;;;;12.97;3.30;;;14.00;99.90;;;;;;5032920;28;20415;-69
2023/10/12 09:45:10;;;;;;;8.20;3.00;;;14.30;99.90;;;;;;5032219;28;20415;-69
2023/10/12 09:47:44;;;;;;;5.13;1.97;;;14.40;99.90;;;;;;5032254;28;20443;-69
2023/10/12 09:50:14;;;;;;;7.10;2.00;;;14.40;99.90;;;;;;5032439;28;21023;-70
2023/10/12 09:52:46;;;;;;;4.80;2.17;;;14.40;99.90;;;;;;5032018;28;20415;-69
2023/10/12 09:55:23;;;;;;;9.97;2.03;;;14.70;99.90;;;;;;5032529;28;20407;-69
2023/10/12 09:57:50;;;;;;;5.23;2.50;;;14.80;99.90;;;;;;5014843;28;20518;-70
2023/10/12 10:01:07;;;;;;;4.50;1.87;;;14.90;99.90;;;;;;5038454;22;20582;-73
2023/10/12 10:03:04;;;;;;;6.77;1.97;;;14.90;99.90;;;;;;5000469;28;20417;-73
2023/10/12 10:08:29;;;;;;;4.63;2.03;;;14.70;99.90;;;;;;5011228;28;20428;-73
2023/10/12 10:10:59;;;;;;;2.43;1.50;;;14.60;99.90;;;;;;5010924;28;20413;-73
2023/10/12 10:13:54;;;;;;;5.90;1.77;;;14.90;99.90;;;;;;5010727;28;20439;-73
2023/10/12 10:16:20;;;;;;;6.77;2.07;;;15.00;99.90;;;;;;5009944;28;20565;-72
2023/10/12 10:18:56;;;;;;;4.10;2.80;;;15.00;99.90;;;;;;5030429;28;20894;-72
2023/10/12 10:21:28;;;;;;;4.37;2.03;;;15.30;99.90;;;;;;5030268;28;20417;-72
2023/10/12 10:23:57;;;;;;;4.73;1.80;;;15.40;99.90;;;;;;5030466;28;20464;-73
2023/10/12 10:26:30;;;;;;;3.43;2.00;;;15.40;99.90;;;;;;5030541;28;20436;-73
2023/10/12 10:29:05;;;;;;;4.23;2.40;;;15.40;99.90;;;;;;5013020;28;20507;-72
2023/10/12 10:31:41;;;;;;;7.03;2.93;;;15.30;99.90;;;;;;5010702;28;20468;-73
2023/10/12 10:34:09;;;;;;;5.10;2.13;;;15.40;99.90;;;;;;5010570;28;20456;-73
2023/10/12 10:36:35;;;;;;;8.73;1.73;;;15.60;99.90;;;;;;5010988;28;20428;-73
2023/10/12 10:44:21;;;;;;;4.77;1.87;;;15.30;99.90;;;;;;5004017;28;20447;-70
2023/10/12 10:46:49;;;;;;;5.57;2.70;;;14.90;99.90;;;;;;5012036;28;20417;-71
2023/10/12 10:49:16;;;;;;;3.87;1.77;;;15.00;99.90;;;;;;5010703;28;20821;-73
2023/10/12 10:51:48;;;;;;;8.17;2.30;;;15.20;99.90;;;;;;5010863;28;20450;-73
2023/10/12 10:54:21;;;;;;;4.87;2.10;;;14.70;99.90;;;;;;5010798;28;20422;-73
2023/10/12 10:56:51;;;;;;;5.83;2.30;;;14.80;99.90;;;;;;5010471;28;20472;-74
2023/10/12 10:59:20;;;;;;;6.73;2.83;;;15.10;99.90;;;;;;5010329;28;20548;-73
2023/10/12 11:01:49;;;;;;;9.63;1.63;;;15.40;99.90;;;;;;5027682;28;20464;-73
2023/10/12 11:07:03;;;;;;;8.40;2.50;;;14.80;99.90;;;;;;5015542;28;20788;-74
2023/10/12 11:09:31;;;;;;;8.20;2.37;;;15.20;99.90;;;;;;5010285;28;20518;-74
2023/10/12 11:12:00;;;;;;;7.27;2.10;;;15.60;99.90;;;;;;5010293;28;20446;-74
2023/10/12 11:14:31;;;;;;;6.43;2.17;;;15.50;99.90;;;;;;5016120;28;20469;-74
2023/10/12 11:16:58;;;;;;;9.30;2.37;;;15.50;99.90;;;;;;5029988;28;20448;-73
2023/10/12 11:19:23;;;;;;;5.23;1.97;;;15.40;99.90;;;;;;5029877;28;20472;-73
2023/10/12 11:21:52;;;;;;;3.73;2.20;;;15.50;99.90;;;;;;5029651;28;20423;-73
2023/10/12 11:24:19;;;;;;;10.13;1.70;;;15.40;99.90;;;;;;5029912;28;20166;-73
2023/10/12 11:26:54;;;;;;;7.83;1.60;;;15.40;99.90;;;;;;5029657;28;20413;-74
2023/10/12 11:29:20;;;;;;;6.20;1.60;;;15.30;99.90;;;;;;5029984;28;20497;-75
2023/10/12 11:32:08;;;;;;;8.03;1.83;;;15.50;99.90;;;;;;5030570;28;20421;-74
2023/10/12 11:34:52;;;;;;;5.33;1.90;;;15.60;99.90;;;;;;5030012;28;20422;-74
2023/10/12 11:37:18;;;;;;;6.63;2.07;;;15.80;99.90;;;;;;5031083;28;20503;-74
2023/10/12 11:39:45;;;;;;;13.93;2.17;;;16.10;99.90;;;;;;5031545;28;20483;-74
2023/10/12 11:42:12;;;;;;;6.60;1.73;;;16.20;99.90;;;;;;5033859;28;20460;-74
2023/10/12 11:44:45;;;;;;;6.87;2.40;;;16.20;99.90;;;;;;5034821;28;20413;-73
2023/10/12 11:47:13;;;;;;;2.70;2.10;;;16.10;99.90;;;;;;5033963;28;20445;-73
2023/10/12 11:49:57;;;;;;;7.50;1.70;;;16.10;99.90;;;;;;5033855;28;20439;-73
2023/10/12 11:52:30;;;;;;;11.27;2.30;;;15.80;99.90;;;;;;5028253;28;20908;-73
2023/10/12 11:55:21;;;;;;;7.30;2.20;;;15.90;99.90;;;;;;5031305;28;20931;-73
2023/10/12 11:57:48;;;;;;;4.63;1.80;;;16.20;99.90;;;;;;5033939;28;20421;-74
2023/10/12 12:00:21;;;;;;;4.77;1.60;;;16.10;99.90;;;;;;5033019;28;20909;-73
2023/10/12 12:02:52;;;;;;;7.37;1.90;;;16.10;99.90;;;;;;5032915;28;20415;-73
2023/10/12 12:05:22;;;;;;;7.03;2.27;;;16.40;99.90;;;;;;5031984;28;20419;-74
2023/10/12 12:07:51;;;;;;;5.10;2.17;;;15.50;99.90;;;;;;5013179;28;20423;-73
2023/10/12 12:10:18;;;;;;;6.33;2.20;;;15.40;99.90;;;;;;5013392;28;20442;-70
2023/10/12 12:12:44;;;;;;;3.70;1.67;;;15.60;99.90;;;;;;5013717;28;20428;-71
2023/10/12 12:15:14;;;;;;;8.30;2.70;;;15.50;99.90;;;;;;5013212;28;20417;-73
2023/10/12 12:17:40;;;;;;;3.70;1.73;;;15.50;99.90;;;;;;4996252;28;20241;-73
2023/10/12 12:20:13;;;;;;;6.07;2.47;;;15.90;99.90;;;;;;5012772;28;20852;-71
2023/10/12 12:22:42;;;;;;;4.90;1.80;;;16.00;99.90;;;;;;5012311;28;20168;-74
2023/10/12 12:25:59;;;;;;;9.57;2.40;;;16.00;99.90;;;;;;5011485;28;20422;-72
2023/10/12 12:28:01;;;;;;;6.73;1.73;;;16.20;99.90;;;;;;5001937;28;20423;-73
2023/10/12 12:30:34;;;;;;;3.77;1.73;;;16.40;99.90;;;;;;4996277;28;20448;-72
2023/10/12 12:33:15;;;;;;;5.83;2.13;;;16.10;99.90;;;;;;5011590;28;20429;-72
2023/10/12 12:35:44;;;;;;;4.93;1.83;;;16.00;99.90;;;;;;5014778;28;20424;-72
2023/10/12 12:40:56;;;;;;;5.87;1.90;;;16.40;99.90;;;;;;5014116;28;20418;-73
2023/10/12 12:43:22;;;;;;;6.40;2.53;;;16.50;99.90;;;;;;5012906;28;20917;-72
2023/10/12 12:45:47;;;;;;;6.83;2.17;;;16.70;99.90;;;;;;5012667;28;20411;-73
2023/10/12 12:48:14;;;;;;;7.87;2.10;;;16.90;99.90;;;;;;5012508;28;20168;-73
2023/10/12 12:50:48;;;;;;;7.70;2.80;;;16.90;99.90;;;;;;5013313;28;20552;-73
2023/10/12 12:53:18;;;;;;;4.80;2.00;;;17.20;99.90;;;;;;5023800;28;20412;-72
2023/10/12 12:55:46;;;;;;;9.83;2.10;;;16.70;99.90;;;;;;5032030;28;20517;-72
2023/10/12 12:58:15;;;;;;;4.97;1.93;;;16.40;99.90;;;;;;5015032;28;20741;-73
2023/10/12 13:00:42;;;;;;;8.83;1.83;;;15.90;99.90;;;;;;5012242;28;20454;-73
2023/10/12 13:03:09;;;;;;;5.23;1.90;;;16.30;99.90;;;;;;5030991;28;20413;-73
2023/10/12 13:05:35;;;;;;;3.83;1.70;;;16.20;99.90;;;;;;5032002;28;20431;-73
2023/10/12 13:08:00;;;;;;;10.97;2.60;;;16.50;99.90;;;;;;5031967;28;20438;-73
2023/10/12 13:10:26;;;;;;;5.23;1.90;;;16.90;99.90;;;;;;5031849;28;20437;-73
2023/10/12 13:12:53;;;;;;;8.70;2.40;;;16.90;99.90;;;;;;5031652;28;20175;-72
2023/10/12 13:15:19;;;;;;;10.13;2.00;;;16.80;99.90;;;;;;5024980;28;20277;-73
2023/10/12 13:17:47;;;;;;;5.03;1.90;;;17.10;99.90;;;;;;5028988;28;20510;-72
2023/10/12 13:20:21;;;;;;;8.17;2.20;;;17.00;99.90;;;;;;5011632;28;20469;-70
2023/10/12 13:22:48;;;;;;;5.13;2.57;;;17.10;99.90;;;;;;5011634;28;20992;-73
2023/10/12 13:25:20;;;;;;;5.33;1.63;;;17.20;99.90;;;;;;5011697;28;20901;-73
2023/10/12 13:27:49;;;;;;;9.23;2.57;;;16.70;99.90;;;;;;5011791;28;20418;-73
2023/10/12 13:30:15;;;;;;;6.47;2.97;;;16.40;99.90;;;;;;5011794;28;20905;-73
2023/10/12 13:32:47;;;;;;;2.90;1.70;;;16.30;99.90;;;;;;5011463;28;20928;-73
2023/10/12 13:37:55;;;;;;;5.33;1.93;;;16.40;99.90;;;;;;5011654;28;20474;-72
2023/10/12 13:40:20;;;;;;;7.33;1.50;;;16.40;99.90;;;;;;5011338;28;20459;-73
2023/10/12 13:42:46;;;;;;;7.83;2.00;;;16.70;99.90;;;;;;5011407;28;20419;-73
2023/10/12 13:45:18;;;;;;;6.47;3.03;;;16.70;99.90;;;;;;5011939;28;20175;-72
2023/10/12 13:47:46;;;;;;;8.63;2.07;;;16.70;99.90;;;;;;5011805;28;20207;-73
2023/10/12 13:50:13;;;;;;;7.57;2.20;;;16.60;99.90;;;;;;5011611;28;20454;-73
2023/10/12 13:52:40;;;;;;;8.10;2.20;;;16.70;99.90;;;;;;5011852;28;20829;-73
2023/10/12 13:55:13;;;;;;;11.70;2.30;;;16.40;99.90;;;;;;5011716;28;20498;-73
2023/10/12 13:57:55;;;;;;;3.90;1.80;;;16.20;99.90;;;;;;5014041;28;20411;-71
2023/10/12 14:00:25;;;;;;;6.63;1.90;;;16.10;99.90;;;;;;5021285;28;20468;-72
2023/10/12 14:02:56;;;;;;;7.47;1.87;;;16.40;99.90;;;;;;5043952;28;20441;-73
2023/10/12 14:05:29;;;;;;;5.70;2.23;;;16.40;99.90;;;;;;5032097;28;20402;-74
2023/10/12 14:08:01;;;;;;;4.40;2.50;;;16.20;99.90;;;;;;5031140;28;20432;-72
2023/10/12 14:10:27;;;;;;;7.00;1.97;;;16.40;99.90;;;;;;5031029;28;20437;-73
2023/10/12 14:12:53;;;;;;;6.17;2.30;;;16.40;99.90;;;;;;5031722;28;20439;-73
2023/10/12 14:15:29;;;;;;;4.30;2.00;;;16.10;99.90;;;;;;5024687;28;20441;-73
2023/10/12 14:17:55;;;;;;;4.40;1.97;;;16.20;99.90;;;;;;5030610;28;20808;-72
2023/10/12 14:20:28;;;;;;;5.00;2.83;;;16.40;99.90;;;;;;5022686;28;20473;-73
2023/10/12 14:22:57;;;;;;;6.80;1.80;;;16.60;99.90;;;;;;4993682;28;20901;-73
2023/10/12 14:25:28;;;;;;;4.80;1.73;;;16.60;99.90;;;;;;5010604;28;20770;-73
2023/10/12 14:28:00;;;;;;;7.50;2.30;;;16.60;99.90;;;;;;5010525;28;20917;-73
2023/10/12 14:30:29;;;;;;;4.83;2.07;;;16.30;99.90;;;;;;5010796;28;20470;-73
2023/10/12 14:32:56;;;;;;;13.47;2.07;;;16.20;99.90;;;;;;5010623;28;20516;-73
2023/10/12 14:35:25;;;;;;;7.20;2.00;;;16.00;99.90;;;;;;5010632;28;20421;-72
2023/10/12 14:37:54;;;;;;;9.83;2.20;;;16.00;99.90;;;;;;5010353;28;20444;-73
2023/10/12 14:40:20;;;;;;;6.10;2.00;;;16.20;99.90;;;;;;5010334;28;20494;-73
2023/10/12 14:42:45;;;;;;;6.33;2.27;;;16.00;99.90;;;;;;5010573;28;20422;-73
2023/10/12 14:45:15;;;;;;;6.00;1.47;;;16.00;99.90;;;;;;5010454;28;20774;-73
2023/10/12 14:47:44;;;;;;;4.80;1.97;;;16.10;99.90;;;;;;5010323;28;20650;-72
2023/10/12 14:50:16;;;;;;;4.63;2.20;;;15.90;99.90;;;;;;5010175;28;20921;-75
2023/10/12 14:52:42;;;;;;;7.67;3.10;;;15.80;99.90;;;;;;5010282;28;20428;-73
2023/10/12 14:55:12;;;;;;;3.20;1.77;;;15.80;99.90;;;;;;5010438;28;20426;-73
2023/10/12 14:57:41;;;;;;;6.00;2.83;;;16.00;99.90;;;;;;5010477;28;20912;-72
2023/10/12 15:00:22;;;;;;;7.97;2.30;;;16.10;99.90;;;;;;5010028;28;20554;-72
2023/10/12 15:02:49;;;;;;;7.87;2.27;;;16.10;99.90;;;;;;5010173;28;20422;-74
2023/10/12 15:05:15;;;;;;;8.40;2.57;;;16.00;99.90;;;;;;5010183;28;20419;-73
2023/10/12 15:07:40;;;;;;;3.77;1.70;;;16.10;99.90;;;;;;5013250;28;20958;-72
2023/10/12 15:10:06;;;;;;;7.93;2.27;;;16.10;99.90;;;;;;5010083;28;20199;-73
2023/10/12 15:12:37;;;;;;;4.50;2.33;;;16.10;99.90;;;;;;5010242;28;20188;-73
2023/10/12 15:15:08;;;;;;;5.30;1.80;;;16.10;99.90;;;;;;5010179;28;20422;-73